Time;durP1;ratioP1;P1;durP2;ratioP2;P2;SDS_P1;SDS_P2;PMS_P1;PMS_P2;Temp;Humidity;BMP_temperature;BMP_pressure;BME280_temperature;BME280_humidity;BME280_pressure;Samples;Min_cycle;Max_cycle;Signal;HPM_P1;HPM_P2
2021/11/06 00:00:43;;;;;;;12.33;7.23;;;4.60;99.90;;;;;;5033200;28;20162;-65
2021/11/06 00:03:09;;;;;;;8.60;6.88;;;4.60;99.90;;;;;;5031724;28;20395;-65
2021/11/06 00:05:35;;;;;;;17.30;5.93;;;4.70;99.90;;;;;;5033056;28;20162;-65
2021/11/06 00:08:00;;;;;;;11.70;7.27;;;4.70;99.90;;;;;;5032633;28;20186;-64
2021/11/06 00:10:26;;;;;;;11.10;7.90;;;4.70;99.90;;;;;;5034121;28;20201;-65
2021/11/06 00:12:52;;;;;;;8.87;6.20;;;4.70;99.90;;;;;;5037211;28;20169;-64
2021/11/06 00:15:18;;;;;;;7.50;5.57;;;4.70;99.90;;;;;;5036902;28;20186;-65
2021/11/06 00:17:44;;;;;;;30.20;6.88;;;4.80;99.90;;;;;;5036747;28;20487;-64
2021/11/06 00:20:12;;;;;;;11.13;6.37;;;4.80;99.90;;;;;;5036837;28;20197;-64
2021/11/06 00:22:38;;;;;;;13.38;6.72;;;4.70;99.90;;;;;;5037003;28;20400;-65
2021/11/06 00:25:06;;;;;;;5.97;4.83;;;4.70;99.90;;;;;;5037051;28;20228;-65
2021/11/06 00:27:33;;;;;;;10.50;5.78;;;4.70;99.90;;;;;;5036484;28;20963;-64
2021/11/06 00:29:59;;;;;;;16.90;6.70;;;4.80;99.90;;;;;;5036921;28;20185;-65
2021/11/06 00:32:25;;;;;;;14.70;6.73;;;4.80;99.90;;;;;;5036956;28;20179;-65
2021/11/06 00:34:50;;;;;;;8.57;5.67;;;4.90;99.90;;;;;;5036657;28;20416;-64
2021/11/06 00:37:17;;;;;;;8.70;6.57;;;4.90;99.90;;;;;;5036259;28;20185;-65
2021/11/06 00:39:43;;;;;;;9.95;5.60;;;4.90;99.90;;;;;;5036436;28;20462;-65
2021/11/06 00:42:08;;;;;;;13.50;7.50;;;4.90;99.90;;;;;;5036512;28;20170;-65
2021/11/06 00:44:34;;;;;;;8.73;5.97;;;4.90;99.90;;;;;;5036575;28;20253;-65
2021/11/06 00:47:00;;;;;;;7.50;6.87;;;4.90;99.90;;;;;;5034890;28;20174;-65
2021/11/06 00:49:26;;;;;;;9.03;5.00;;;4.90;99.90;;;;;;5036362;28;20194;-66
2021/11/06 00:51:51;;;;;;;7.90;5.63;;;4.90;99.90;;;;;;5018971;28;20178;-65
2021/11/06 00:54:17;;;;;;;7.00;6.23;;;4.90;99.90;;;;;;5036579;28;20537;-67
2021/11/06 00:56:43;;;;;;;7.87;5.00;;;5.00;99.90;;;;;;5036121;28;20610;-65
2021/11/06 00:59:09;;;;;;;7.60;5.20;;;4.90;99.90;;;;;;5035036;28;20536;-65
2021/11/06 01:01:36;;;;;;;7.78;5.78;;;4.90;99.90;;;;;;5036276;28;20424;-65
2021/11/06 01:04:04;;;;;;;14.73;6.05;;;4.90;99.90;;;;;;5034958;28;20193;-65
2021/11/06 01:06:29;;;;;;;11.00;8.48;;;4.90;99.90;;;;;;5035842;28;20171;-64
2021/11/06 01:08:55;;;;;;;12.30;5.53;;;4.80;99.90;;;;;;5036161;28;20196;-66
2021/11/06 01:11:21;;;;;;;7.17;5.73;;;4.80;99.90;;;;;;5036221;28;20639;-65
2021/11/06 01:13:46;;;;;;;16.93;7.00;;;4.80;99.90;;;;;;5036334;28;20175;-65
2021/11/06 01:16:12;;;;;;;17.53;8.87;;;4.80;99.90;;;;;;5035800;28;20285;-65
2021/11/06 01:18:38;;;;;;;11.70;7.27;;;4.80;99.90;;;;;;5035787;28;20198;-65
2021/11/06 01:21:06;;;;;;;13.07;7.63;;;4.70;99.90;;;;;;5035846;28;20609;-65
2021/11/06 01:23:32;;;;;;;13.20;7.15;;;4.70;99.90;;;;;;5036022;28;20261;-66
2021/11/06 01:25:57;;;;;;;23.50;8.45;;;4.60;99.90;;;;;;5035917;28;20171;-64
2021/11/06 01:28:23;;;;;;;12.07;6.00;;;4.60;99.90;;;;;;5035198;28;20285;-64
2021/11/06 01:30:49;;;;;;;20.33;9.47;;;4.50;99.90;;;;;;5035942;28;20185;-65
2021/11/06 01:33:15;;;;;;;10.43;5.90;;;4.50;99.90;;;;;;5035746;28;20226;-65
2021/11/06 01:35:40;;;;;;;7.47;6.13;;;4.50;99.90;;;;;;5035663;28;20219;-65
2021/11/06 01:38:06;;;;;;;10.73;5.90;;;4.50;99.90;;;;;;5035270;28;20731;-66
2021/11/06 01:40:32;;;;;;;9.23;6.43;;;4.40;99.90;;;;;;5035537;28;20263;-65
2021/11/06 01:42:57;;;;;;;7.27;5.87;;;4.50;99.90;;;;;;5035342;28;20163;-65
2021/11/06 01:45:24;;;;;;;11.43;6.37;;;4.40;99.90;;;;;;5035502;28;20249;-65
2021/11/06 01:47:50;;;;;;;8.02;5.05;;;4.50;99.90;;;;;;5035088;28;20428;-64
2021/11/06 01:50:17;;;;;;;16.20;6.63;;;4.40;99.90;;;;;;5033891;28;20221;-65
2021/11/06 01:52:43;;;;;;;20.50;9.18;;;4.40;99.90;;;;;;5035390;28;20185;-64
2021/11/06 01:55:09;;;;;;;9.33;6.53;;;4.40;99.90;;;;;;5034134;28;20178;-65
2021/11/06 01:57:35;;;;;;;33.10;6.72;;;4.40;99.90;;;;;;5034780;28;20433;-65
2021/11/06 02:00:05;;;;;;;8.47;5.63;;;4.40;99.90;;;;;;5034950;28;20208;-65
2021/11/06 02:02:31;;;;;;;7.53;5.40;;;4.30;99.90;;;;;;5035042;28;20380;-66
2021/11/06 02:04:57;;;;;;;5.90;5.10;;;4.30;99.90;;;;;;5035386;28;20193;-63
2021/11/06 02:07:22;;;;;;;12.13;7.63;;;4.30;99.90;;;;;;5034744;28;20643;-65
2021/11/06 02:09:48;;;;;;;12.77;5.63;;;4.20;99.90;;;;;;5035126;28;20170;-65
2021/11/06 02:12:14;;;;;;;25.00;6.90;;;4.20;99.90;;;;;;5035063;28;20205;-64
2021/11/06 02:14:40;;;;;;;38.17;7.90;;;4.20;99.90;;;;;;5034760;28;20198;-65
2021/11/06 02:17:05;;;;;;;11.30;5.90;;;4.30;99.90;;;;;;5034591;28;20441;-65
2021/11/06 02:19:32;;;;;;;8.93;6.67;;;4.30;99.90;;;;;;5034602;28;20209;-65
2021/11/06 02:22:00;;;;;;;8.68;4.57;;;4.30;99.90;;;;;;5034820;28;20512;-65
2021/11/06 02:24:27;;;;;;;21.58;7.15;;;4.20;99.90;;;;;;5033565;28;20205;-65
2021/11/06 02:26:54;;;;;;;15.77;5.82;;;4.20;99.90;;;;;;5034288;28;20163;-65
2021/11/06 02:29:20;;;;;;;8.43;5.25;;;4.20;99.90;;;;;;5034535;28;20252;-65
2021/11/06 02:31:47;;;;;;;8.82;5.47;;;4.20;99.90;;;;;;5034890;28;20688;-65
2021/11/06 02:34:12;;;;;;;15.93;6.75;;;4.20;99.90;;;;;;5034041;28;20266;-65
2021/11/06 02:36:38;;;;;;;11.30;4.90;;;4.20;99.90;;;;;;5034242;28;20254;-65
2021/11/06 02:39:06;;;;;;;12.43;6.00;;;4.20;99.90;;;;;;5034169;28;20449;-65
2021/11/06 02:41:32;;;;;;;19.02;6.75;;;4.20;99.90;;;;;;5034546;28;20256;-65
2021/11/06 02:44:00;;;;;;;7.82;5.53;;;4.20;99.90;;;;;;5033443;28;20174;-66
2021/11/06 02:46:26;;;;;;;11.75;3.55;;;4.20;99.90;;;;;;5034169;28;20695;-65
2021/11/06 02:48:51;;;;;;;11.10;5.77;;;4.20;99.90;;;;;;5034263;28;20190;-65
2021/11/06 02:51:17;;;;;;;6.90;6.20;;;4.20;99.90;;;;;;5034407;28;20174;-66
2021/11/06 02:53:43;;;;;;;7.30;5.97;;;4.20;99.90;;;;;;5034186;28;20507;-66
2021/11/06 02:56:09;;;;;;;12.27;4.72;;;4.30;99.90;;;;;;5034250;28;20170;-65
2021/11/06 02:58:35;;;;;;;7.60;5.20;;;4.30;99.90;;;;;;5032396;28;20212;-65
2021/11/06 03:01:02;;;;;;;9.17;4.87;;;4.30;99.90;;;;;;5034455;28;20254;-66
2021/11/06 03:03:28;;;;;;;15.50;6.75;;;4.30;99.90;;;;;;5034148;28;20404;-65
2021/11/06 03:05:54;;;;;;;11.80;6.20;;;4.40;99.90;;;;;;5034032;28;20166;-65
2021/11/06 03:08:19;;;;;;;11.50;4.50;;;4.40;99.90;;;;;;5033485;28;20193;-65
2021/11/06 03:10:45;;;;;;;6.17;4.47;;;4.40;99.90;;;;;;5034170;28;20174;-65
2021/11/06 03:13:11;;;;;;;6.67;4.80;;;4.40;99.90;;;;;;5033881;28;20178;-65
2021/11/06 03:15:37;;;;;;;6.05;4.80;;;4.40;99.90;;;;;;5033531;28;20557;-65
2021/11/06 03:18:03;;;;;;;8.10;6.03;;;4.50;99.90;;;;;;5033372;28;20281;-65
2021/11/06 03:20:30;;;;;;;7.32;5.00;;;4.50;99.90;;;;;;5033915;28;20170;-66
2021/11/06 03:22:59;;;;;;;6.78;4.30;;;4.60;99.90;;;;;;5033654;28;20220;-65
2021/11/06 03:25:28;;;;;;;15.40;6.30;;;4.60;99.90;;;;;;5033787;28;20166;-65
2021/11/06 03:27:55;;;;;;;9.77;6.40;;;4.50;99.90;;;;;;5033154;28;20228;-65
2021/11/06 03:30:21;;;;;;;8.02;5.97;;;4.50;99.90;;;;;;5033653;28;20198;-65
2021/11/06 03:32:47;;;;;;;6.88;4.18;;;4.60;99.90;;;;;;5033543;28;20174;-65
2021/11/06 03:35:13;;;;;;;12.93;6.53;;;4.60;99.90;;;;;;5033513;28;20179;-65
2021/11/06 03:37:39;;;;;;;15.10;7.80;;;4.60;99.90;;;;;;5032933;28;20202;-65
2021/11/06 03:40:06;;;;;;;5.93;5.13;;;4.70;99.90;;;;;;5033446;28;20609;-65
2021/11/06 03:42:32;;;;;;;7.95;5.88;;;4.70;99.90;;;;;;5033217;28;20268;-65
2021/11/06 03:44:57;;;;;;;13.23;8.10;;;4.70;99.90;;;;;;5032553;28;20245;-65
2021/11/06 03:47:24;;;;;;;8.70;5.57;;;4.70;99.90;;;;;;5032934;28;20170;-65
2021/11/06 03:49:49;;;;;;;8.45;5.75;;;4.70;99.90;;;;;;5033226;28;20174;-65
2021/11/06 03:52:15;;;;;;;8.57;6.83;;;4.80;99.90;;;;;;5033419;28;20252;-65
2021/11/06 03:54:42;;;;;;;9.53;7.03;;;4.70;99.90;;;;;;5031997;28;20737;-65
2021/11/06 03:57:08;;;;;;;8.90;6.63;;;4.70;99.90;;;;;;5032585;28;20425;-65
2021/11/06 03:59:34;;;;;;;11.15;6.82;;;4.70;99.90;;;;;;5033060;28;20201;-65
2021/11/06 04:02:00;;;;;;;11.20;7.10;;;4.70;99.90;;;;;;5033200;28;20614;-65
2021/11/06 04:04:26;;;;;;;9.68;7.40;;;4.70;99.90;;;;;;5033127;28;20174;-66
2021/11/06 04:06:52;;;;;;;8.35;6.07;;;4.70;99.90;;;;;;5032783;28;20170;-65
2021/11/06 04:09:18;;;;;;;7.40;6.33;;;4.70;99.90;;;;;;5033043;28;20328;-64
2021/11/06 04:11:43;;;;;;;14.03;7.50;;;4.70;99.90;;;;;;5033088;28;20170;-65
2021/11/06 04:14:09;;;;;;;9.40;6.77;;;4.70;99.90;;;;;;5033223;28;20626;-64
2021/11/06 04:16:34;;;;;;;8.23;6.13;;;4.70;99.90;;;;;;5032671;28;20190;-64
2021/11/06 04:19:00;;;;;;;14.93;8.07;;;4.70;99.90;;;;;;5032713;28;20248;-65
2021/11/06 04:21:26;;;;;;;11.03;7.30;;;4.70;99.90;;;;;;5033145;28;20166;-65
2021/11/06 04:23:51;;;;;;;7.53;6.40;;;4.70;99.90;;;;;;5032806;28;20172;-66
2021/11/06 04:26:17;;;;;;;7.47;6.10;;;4.70;99.90;;;;;;5032712;28;20293;-65
2021/11/06 04:28:43;;;;;;;19.73;9.27;;;4.70;99.90;;;;;;5032939;28;20190;-66
2021/11/06 04:31:09;;;;;;;15.80;7.30;;;4.70;99.90;;;;;;5033020;28;20566;-64
2021/11/06 04:33:34;;;;;;;10.43;6.97;;;4.80;99.90;;;;;;5015184;28;20213;-65
2021/11/06 04:36:02;;;;;;;11.40;8.03;;;4.70;99.90;;;;;;5032686;28;20186;-66
2021/11/06 04:38:27;;;;;;;18.95;8.30;;;4.70;99.90;;;;;;5032521;28;20212;-65
2021/11/06 04:40:53;;;;;;;8.27;5.90;;;4.70;99.90;;;;;;5032927;28;20249;-65
2021/11/06 04:43:19;;;;;;;8.50;5.90;;;4.80;99.90;;;;;;5032770;28;20166;-65
2021/11/06 04:45:45;;;;;;;12.87;7.73;;;4.70;99.90;;;;;;5032861;28;20522;-65
2021/11/06 04:48:10;;;;;;;9.20;7.07;;;4.70;99.90;;;;;;5032143;28;20199;-65
2021/11/06 04:50:36;;;;;;;10.07;5.60;;;4.70;99.90;;;;;;5031380;28;20181;-66
2021/11/06 04:53:02;;;;;;;9.73;5.33;;;4.60;99.90;;;;;;5032715;28;20173;-65
2021/11/06 04:55:28;;;;;;;12.45;7.10;;;4.60;99.90;;;;;;5032585;28;20424;-64
2021/11/06 04:57:54;;;;;;;10.10;6.37;;;4.60;99.90;;;;;;5035229;28;20272;-65
2021/11/06 05:00:19;;;;;;;9.30;5.10;;;4.60;99.90;;;;;;5036270;28;20206;-64
2021/11/06 05:02:45;;;;;;;13.30;6.57;;;4.50;99.90;;;;;;5036366;28;20174;-66
2021/11/06 05:05:11;;;;;;;12.10;7.38;;;4.50;99.90;;;;;;5036374;28;20523;-65
2021/11/06 05:07:37;;;;;;;6.63;5.10;;;4.60;99.90;;;;;;5035920;28;20189;-65
2021/11/06 05:10:05;;;;;;;10.83;7.50;;;4.60;99.90;;;;;;5036302;28;20167;-65
2021/11/06 05:12:30;;;;;;;7.53;6.40;;;4.60;99.90;;;;;;5036154;28;20248;-65
2021/11/06 05:14:56;;;;;;;18.43;8.53;;;4.60;99.90;;;;;;5035986;28;20289;-65
2021/11/06 05:17:22;;;;;;;11.43;6.23;;;4.70;99.90;;;;;;5035726;28;20175;-66
2021/11/06 05:19:48;;;;;;;14.37;8.73;;;4.70;99.90;;;;;;5034565;28;20202;-66
2021/11/06 05:22:14;;;;;;;11.23;7.50;;;4.60;99.90;;;;;;5036109;28;20639;-65
2021/11/06 05:24:40;;;;;;;11.23;5.70;;;4.60;99.90;;;;;;5035845;28;20174;-65
2021/11/06 05:27:06;;;;;;;6.77;5.20;;;4.60;99.90;;;;;;5035263;28;20170;-65
2021/11/06 05:29:32;;;;;;;9.40;5.88;;;4.70;99.90;;;;;;5035819;28;20429;-65
2021/11/06 05:31:59;;;;;;;8.98;5.57;;;4.70;99.90;;;;;;5035904;28;20224;-64
2021/11/06 05:34:24;;;;;;;11.90;5.35;;;4.70;99.90;;;;;;5035589;28;20258;-65
2021/11/06 05:36:50;;;;;;;11.27;5.93;;;4.60;99.90;;;;;;5035525;28;20232;-65
2021/11/06 05:39:16;;;;;;;10.00;6.10;;;4.60;99.90;;;;;;5034277;28;20209;-64
2021/11/06 05:41:42;;;;;;;10.17;6.23;;;4.60;99.90;;;;;;5035578;28;20167;-64
2021/11/06 05:44:07;;;;;;;12.40;5.67;;;4.50;99.90;;;;;;5035397;28;20393;-64
2021/11/06 05:46:34;;;;;;;13.00;7.07;;;4.50;99.90;;;;;;5035334;28;20409;-64
2021/11/06 05:49:00;;;;;;;11.15;6.72;;;4.50;99.90;;;;;;5017866;28;20255;-64
2021/11/06 05:51:25;;;;;;;10.87;7.13;;;4.50;99.90;;;;;;5035480;28;20635;-64
2021/11/06 05:53:51;;;;;;;10.27;6.27;;;4.50;99.90;;;;;;5035432;28;20268;-64
2021/11/06 05:56:18;;;;;;;10.93;6.43;;;4.50;99.90;;;;;;5035097;28;20167;-64
2021/11/06 05:58:44;;;;;;;11.00;5.97;;;4.50;99.90;;;;;;5035027;28;20456;-65
2021/11/06 06:01:10;;;;;;;8.73;7.83;;;4.50;99.90;;;;;;5035330;28;20174;-64
2021/11/06 06:03:36;;;;;;;10.13;6.63;;;4.50;99.90;;;;;;5035051;28;20220;-64
2021/11/06 06:06:03;;;;;;;10.93;5.83;;;4.50;99.90;;;;;;5017421;28;20166;-65
2021/11/06 06:08:28;;;;;;;7.10;4.72;;;4.50;99.90;;;;;;5033765;28;20225;-64
2021/11/06 06:10:54;;;;;;;5.53;3.80;;;4.50;99.90;;;;;;5035044;28;20212;-64
2021/11/06 06:13:20;;;;;;;10.83;6.10;;;4.50;99.90;;;;;;5035147;28;20174;-65
2021/11/06 06:15:45;;;;;;;18.33;6.77;;;4.50;99.90;;;;;;5017173;28;20605;-64
2021/11/06 06:18:11;;;;;;;10.53;6.13;;;4.50;99.90;;;;;;5034372;28;20201;-64
2021/11/06 06:20:37;;;;;;;18.95;9.13;;;4.50;99.90;;;;;;5034727;28;20170;-64
2021/11/06 06:23:04;;;;;;;9.53;6.03;;;4.50;99.90;;;;;;5033620;28;20530;-64
2021/11/06 06:25:30;;;;;;;8.80;6.03;;;4.50;99.90;;;;;;5034522;28;20166;-64
2021/11/06 06:27:56;;;;;;;14.70;7.87;;;4.50;99.90;;;;;;5034117;28;20215;-64
2021/11/06 06:30:21;;;;;;;7.38;5.68;;;4.60;99.90;;;;;;5033372;28;20503;-64
2021/11/06 06:32:47;;;;;;;9.20;5.57;;;4.60;99.90;;;;;;5034431;28;20257;-64
2021/11/06 06:35:16;;;;;;;6.80;4.65;;;4.60;99.90;;;;;;5034733;28;20230;-65
2021/11/06 06:37:42;;;;;;;14.45;7.40;;;4.60;99.90;;;;;;5034106;28;20270;-63
2021/11/06 06:40:09;;;;;;;6.93;5.18;;;4.70;99.90;;;;;;5034373;28;20198;-65
2021/11/06 06:42:36;;;;;;;15.00;7.00;;;4.70;99.90;;;;;;5034581;28;20209;-65
2021/11/06 06:45:03;;;;;;;8.60;5.13;;;4.80;99.90;;;;;;5034161;28;20538;-65
2021/11/06 06:47:29;;;;;;;12.95;5.30;;;4.80;99.90;;;;;;5033886;28;20595;-65
2021/11/06 06:49:55;;;;;;;8.00;5.68;;;4.80;99.90;;;;;;5034216;28;20171;-64
2021/11/06 06:52:20;;;;;;;7.53;4.70;;;4.80;99.90;;;;;;5034287;28;20503;-66
2021/11/06 06:54:46;;;;;;;10.30;5.77;;;4.80;99.90;;;;;;5034360;28;20703;-66
2021/11/06 06:57:12;;;;;;;7.30;6.57;;;4.90;99.90;;;;;;5033771;28;20266;-65
2021/11/06 06:59:37;;;;;;;9.57;6.53;;;4.80;99.90;;;;;;5033934;28;20198;-65
2021/11/06 07:02:05;;;;;;;6.43;5.43;;;4.90;99.90;;;;;;5033944;28;20174;-65
2021/11/06 07:04:32;;;;;;;11.05;7.18;;;4.90;99.90;;;;;;5033955;28;20249;-65
2021/11/06 07:06:58;;;;;;;9.88;5.95;;;4.90;99.90;;;;;;5033691;28;20224;-65
2021/11/06 07:09:24;;;;;;;10.60;6.13;;;4.90;99.90;;;;;;5034412;28;20205;-65
2021/11/06 07:11:51;;;;;;;8.95;6.00;;;5.00;99.90;;;;;;5033781;28;20932;-65
2021/11/06 07:14:21;;;;;;;14.75;6.03;;;5.00;99.90;;;;;;5033729;28;20217;-65
2021/11/06 07:16:48;;;;;;;8.90;5.28;;;5.00;99.90;;;;;;5033287;28;20189;-65
2021/11/06 07:19:14;;;;;;;9.35;7.28;;;5.00;99.90;;;;;;5033420;28;20205;-65
2021/11/06 07:21:40;;;;;;;11.98;5.07;;;5.00;99.90;;;;;;5033619;28;20262;-66
2021/11/06 07:24:06;;;;;;;12.63;5.33;;;5.00;99.90;;;;;;5033710;28;20249;-64
2021/11/06 07:26:32;;;;;;;10.47;6.33;;;5.00;99.90;;;;;;5033405;28;20404;-65
2021/11/06 07:28:59;;;;;;;10.68;7.20;;;4.90;99.90;;;;;;5033260;28;20472;-64
2021/11/06 07:31:25;;;;;;;10.70;4.78;;;4.90;99.90;;;;;;5033413;28;20171;-65
2021/11/06 07:33:53;;;;;;;8.97;6.10;;;4.90;99.90;;;;;;5033477;28;20182;-67
2021/11/06 07:36:19;;;;;;;8.10;6.45;;;4.90;99.90;;;;;;5033140;28;20412;-65
2021/11/06 07:38:44;;;;;;;9.63;5.53;;;4.90;99.90;;;;;;5033064;28;20205;-65
2021/11/06 07:41:11;;;;;;;10.87;5.77;;;4.90;99.90;;;;;;5033364;28;20181;-65
2021/11/06 07:43:38;;;;;;;6.25;4.28;;;4.90;99.90;;;;;;5033226;28;20519;-65
2021/11/06 07:46:05;;;;;;;8.73;5.07;;;4.90;99.90;;;;;;5033105;28;20169;-65
2021/11/06 07:48:31;;;;;;;12.00;4.70;;;4.90;99.90;;;;;;5032996;28;20230;-64
2021/11/06 07:50:56;;;;;;;7.28;5.05;;;5.00;99.90;;;;;;5033149;28;20178;-65
2021/11/06 07:53:22;;;;;;;7.97;5.17;;;5.10;99.90;;;;;;5033349;28;20174;-65
2021/11/06 07:55:48;;;;;;;7.37;5.10;;;5.10;99.90;;;;;;5033071;28;20184;-65
2021/11/06 07:58:14;;;;;;;7.40;5.10;;;5.10;99.90;;;;;;5032939;28;20464;-65
2021/11/06 08:00:41;;;;;;;8.20;5.47;;;5.10;99.90;;;;;;5033302;28;20428;-65
2021/11/06 08:03:06;;;;;;;6.07;4.75;;;5.10;99.90;;;;;;5033033;28;20778;-65
2021/11/06 08:05:32;;;;;;;7.27;4.63;;;5.10;99.90;;;;;;5033120;28;20173;-65
2021/11/06 08:07:58;;;;;;;9.40;4.77;;;5.10;99.90;;;;;;5032719;28;20244;-65
2021/11/06 08:10:24;;;;;;;8.33;6.43;;;5.20;99.90;;;;;;5033061;28;20401;-65
2021/11/06 08:12:50;;;;;;;8.70;6.38;;;5.20;99.90;;;;;;5033189;28;20269;-64
2021/11/06 08:15:16;;;;;;;6.80;6.10;;;5.20;99.90;;;;;;5032788;28;20269;-65
2021/11/06 08:17:43;;;;;;;10.18;6.13;;;5.30;99.90;;;;;;5032671;28;20290;-65
2021/11/06 08:20:09;;;;;;;9.48;6.70;;;5.30;99.90;;;;;;5031605;28;20210;-65
2021/11/06 08:22:36;;;;;;;8.90;5.32;;;5.30;99.90;;;;;;5033047;28;20195;-65
2021/11/06 08:25:04;;;;;;;13.63;5.68;;;5.30;99.90;;;;;;5032881;28;20213;-65
2021/11/06 08:27:29;;;;;;;10.15;5.32;;;5.40;99.90;;;;;;5031304;28;20194;-64
2021/11/06 08:29:55;;;;;;;17.67;6.80;;;5.40;99.90;;;;;;5032965;28;20174;-65
2021/11/06 08:32:21;;;;;;;8.18;5.65;;;5.40;99.90;;;;;;5035320;28;20239;-64
2021/11/06 08:34:47;;;;;;;7.20;5.50;;;5.40;99.90;;;;;;5036920;28;20258;-64
2021/11/06 08:37:13;;;;;;;9.90;5.40;;;5.50;99.90;;;;;;5036441;28;20686;-65
2021/11/06 08:39:38;;;;;;;6.70;5.43;;;5.60;99.90;;;;;;5036993;28;20203;-65
2021/11/06 08:42:04;;;;;;;13.20;5.97;;;5.60;99.90;;;;;;5035208;28;20418;-66
2021/11/06 08:44:30;;;;;;;7.23;5.70;;;5.60;99.90;;;;;;5036657;28;20201;-65
2021/11/06 08:46:56;;;;;;;11.67;6.40;;;5.60;99.90;;;;;;5036157;28;20269;-65
2021/11/06 08:49:23;;;;;;;14.48;6.35;;;5.70;99.90;;;;;;5036404;28;20194;-65
2021/11/06 08:51:51;;;;;;;13.05;6.57;;;5.70;99.90;;;;;;5036998;28;20166;-65
2021/11/06 08:54:18;;;;;;;8.65;6.00;;;5.70;99.90;;;;;;5036290;28;20265;-65
2021/11/06 08:56:45;;;;;;;9.20;6.25;;;5.70;99.90;;;;;;5036222;28;20220;-65
2021/11/06 08:59:15;;;;;;;8.43;7.00;;;5.70;99.90;;;;;;5036187;28;20608;-65
2021/11/06 09:01:41;;;;;;;13.63;6.68;;;5.70;99.90;;;;;;5036254;28;20515;-65
2021/11/06 09:04:07;;;;;;;7.05;6.40;;;5.70;99.90;;;;;;5036404;28;20179;-66
2021/11/06 09:06:33;;;;;;;12.27;6.73;;;5.80;99.90;;;;;;5036029;28;20179;-65
2021/11/06 09:09:02;;;;;;;9.13;6.70;;;5.80;99.90;;;;;;5036177;28;20439;-65
2021/11/06 09:11:28;;;;;;;11.82;6.93;;;5.80;99.90;;;;;;5036096;28;20162;-65
2021/11/06 09:13:56;;;;;;;14.50;7.87;;;5.90;99.90;;;;;;5036155;28;20269;-66
2021/11/06 09:16:22;;;;;;;10.30;8.25;;;5.90;99.90;;;;;;5035397;28;20194;-65
2021/11/06 09:18:49;;;;;;;7.78;5.50;;;6.00;99.90;;;;;;5035770;28;20290;-64
2021/11/06 09:21:18;;;;;;;8.27;6.40;;;6.00;99.90;;;;;;5034799;28;20179;-66
2021/11/06 09:23:47;;;;;;;11.93;9.85;;;6.00;99.90;;;;;;5036011;28;20169;-65
2021/11/06 09:26:14;;;;;;;14.88;6.05;;;5.90;99.90;;;;;;5018550;28;20171;-65
2021/11/06 09:28:41;;;;;;;9.18;6.70;;;6.00;99.90;;;;;;5033995;28;20358;-64
2021/11/06 09:31:11;;;;;;;8.95;7.68;;;6.00;99.90;;;;;;5035633;28;20178;-65
2021/11/06 09:33:39;;;;;;;8.15;6.38;;;6.00;99.90;;;;;;5035580;28;20188;-65
2021/11/06 09:36:05;;;;;;;9.43;6.97;;;6.10;99.90;;;;;;5035732;28;20633;-65
2021/11/06 09:38:32;;;;;;;9.73;5.78;;;6.20;99.90;;;;;;5035261;28;20210;-65
2021/11/06 09:41:02;;;;;;;9.38;7.18;;;6.30;99.90;;;;;;5035604;28;20315;-65
2021/11/06 09:43:28;;;;;;;7.78;5.85;;;6.30;99.90;;;;;;5034361;28;20175;-65
2021/11/06 09:45:54;;;;;;;14.43;7.23;;;6.30;99.90;;;;;;5035338;28;20263;-65
2021/11/06 09:48:23;;;;;;;9.80;6.38;;;6.30;99.90;;;;;;5035050;28;20557;-66
2021/11/06 09:50:48;;;;;;;10.82;7.65;;;6.30;99.90;;;;;;5035569;28;20254;-64
2021/11/06 09:53:16;;;;;;;7.57;6.00;;;6.40;99.90;;;;;;5035302;28;20667;-64
2021/11/06 09:55:43;;;;;;;7.88;6.75;;;6.40;99.90;;;;;;5035146;28;20840;-64
2021/11/06 09:58:09;;;;;;;10.93;7.80;;;6.50;99.90;;;;;;5034833;28;20197;-64
2021/11/06 10:00:34;;;;;;;10.50;5.97;;;6.60;99.90;;;;;;5035126;28;20204;-65
2021/11/06 10:03:00;;;;;;;8.40;6.40;;;6.60;99.90;;;;;;5017379;28;20224;-63
2021/11/06 10:05:44;;;;;;;12.50;7.70;;;6.60;99.90;;;;;;5035179;28;20184;-65
2021/11/06 10:08:35;;;;;;;10.20;8.07;;;6.70;99.90;;;;;;5034735;28;20276;-65
2021/11/06 10:11:16;;;;;;;11.35;6.97;;;6.70;99.90;;;;;;5034805;28;20170;-65
2021/11/06 10:13:50;;;;;;;9.02;7.07;;;6.70;99.90;;;;;;5034823;28;20632;-65
2021/11/06 10:16:37;;;;;;;10.05;7.57;;;6.70;99.90;;;;;;5034510;28;20179;-65
2021/11/06 10:19:07;;;;;;;8.10;7.32;;;6.80;99.90;;;;;;5034831;28;20538;-65
2021/11/06 10:21:34;;;;;;;10.90;7.18;;;6.90;99.90;;;;;;5034998;28;20641;-65
2021/11/06 10:24:00;;;;;;;8.27;6.55;;;6.90;99.90;;;;;;5034577;28;20231;-63
2021/11/06 10:26:26;;;;;;;8.70;6.10;;;6.90;99.90;;;;;;5034658;28;20174;-67
2021/11/06 10:29:16;;;;;;;14.43;8.20;;;6.90;99.90;;;;;;5034737;28;20190;-65
2021/11/06 10:31:53;;;;;;;8.40;7.50;;;6.90;99.90;;;;;;5017191;28;20272;-63
2021/11/06 10:34:24;;;;;;;9.48;6.82;;;7.00;99.90;;;;;;5034537;28;20661;-64
2021/11/06 10:37:11;;;;;;;10.07;8.02;;;7.10;99.90;;;;;;5034324;28;20178;-65
2021/11/06 10:39:57;;;;;;;9.00;7.80;;;7.10;99.90;;;;;;5034717;28;20527;-64
2021/11/06 10:42:24;;;;;;;12.25;9.90;;;7.30;99.90;;;;;;5016660;28;20504;-65
2021/11/06 10:44:50;;;;;;;11.27;8.10;;;7.40;99.90;;;;;;5034306;28;20169;-65
2021/11/06 10:47:16;;;;;;;8.60;6.70;;;7.40;99.90;;;;;;5033952;28;20173;-64
2021/11/06 10:49:49;;;;;;;10.55;8.00;;;7.40;99.90;;;;;;5034322;28;20174;-65
2021/11/06 10:52:19;;;;;;;11.38;7.88;;;7.30;99.90;;;;;;5034554;28;20209;-66
2021/11/06 10:55:09;;;;;;;8.88;6.97;;;7.30;99.90;;;;;;5033830;28;20191;-65
2021/11/06 10:57:35;;;;;;;12.38;8.85;;;7.20;99.90;;;;;;5034199;28;20673;-65
2021/11/06 11:00:19;;;;;;;10.63;7.20;;;7.10;99.90;;;;;;5034081;28;20205;-64
2021/11/06 11:02:45;;;;;;;12.90;9.00;;;7.20;99.90;;;;;;5034247;28;20185;-64
2021/11/06 11:05:30;;;;;;;16.48;9.52;;;7.30;99.90;;;;;;5033852;28;20181;-66
2021/11/06 11:08:08;;;;;;;11.85;7.65;;;7.40;99.90;;;;;;5033488;28;20193;-64
2021/11/06 11:10:36;;;;;;;9.63;7.97;;;7.50;99.90;;;;;;5033949;28;20541;-65
2021/11/06 11:13:22;;;;;;;12.82;8.95;;;7.60;99.90;;;;;;5033905;28;20166;-65
2021/11/06 11:15:53;;;;;;;10.45;7.82;;;7.70;99.90;;;;;;5033538;28;20614;-64
2021/11/06 11:18:49;;;;;;;11.55;9.60;;;7.70;99.90;;;;;;5033483;28;20193;-65
2021/11/06 11:21:27;;;;;;;11.55;7.22;;;7.60;99.90;;;;;;5020783;28;20178;-65
2021/11/06 11:23:58;;;;;;;10.35;7.55;;;7.60;99.90;;;;;;5017210;28;20170;-65
2021/11/06 11:26:31;;;;;;;13.20;9.55;;;7.70;99.90;;;;;;5033212;28;20194;-65
2021/11/06 11:28:59;;;;;;;10.30;7.22;;;7.80;99.90;;;;;;5033344;28;20221;-65
2021/11/06 11:31:26;;;;;;;13.10;8.57;;;7.80;99.90;;;;;;5033901;28;20186;-65
2021/11/06 11:33:52;;;;;;;12.88;8.02;;;7.70;99.90;;;;;;5033711;28;20204;-65
2021/11/06 11:36:21;;;;;;;13.27;10.18;;;7.60;99.90;;;;;;5033211;28;20166;-66
2021/11/06 11:38:48;;;;;;;12.32;9.40;;;7.60;99.90;;;;;;5033553;28;20743;-65
2021/11/06 11:41:32;;;;;;;13.35;8.93;;;7.60;99.90;;;;;;5033306;28;20182;-66
2021/11/06 11:44:10;;;;;;;8.38;7.57;;;7.50;99.90;;;;;;5033403;28;20166;-65
2021/11/06 11:46:41;;;;;;;12.88;8.82;;;7.50;99.90;;;;;;5033281;28;20176;-65
2021/11/06 11:49:08;;;;;;;13.65;8.50;;;7.50;99.90;;;;;;5033170;28;20255;-66
2021/11/06 11:51:35;;;;;;;10.90;7.97;;;7.60;99.90;;;;;;5031705;28;20728;-65
2021/11/06 11:54:05;;;;;;;11.73;8.25;;;7.60;99.90;;;;;;5033225;28;20248;-65
2021/11/06 11:56:31;;;;;;;14.02;8.73;;;7.50;99.90;;;;;;5032993;28;20174;-65
2021/11/06 11:58:57;;;;;;;18.80;9.82;;;7.50;99.90;;;;;;5033088;28;20233;-66
2021/11/06 12:01:24;;;;;;;15.05;9.52;;;7.50;99.90;;;;;;5033145;28;20166;-65
2021/11/06 12:03:51;;;;;;;11.27;8.80;;;7.50;99.90;;;;;;5031748;28;20634;-65
2021/11/06 12:06:33;;;;;;;13.93;10.48;;;7.60;99.90;;;;;;5031917;28;20173;-65
2021/11/06 12:09:20;;;;;;;14.65;9.63;;;7.70;99.90;;;;;;5033003;28;20198;-66
2021/11/06 12:11:53;;;;;;;12.95;9.35;;;7.70;99.90;;;;;;5033017;28;20170;-66
2021/11/06 12:14:31;;;;;;;12.85;9.32;;;7.90;99.90;;;;;;5033076;28;20169;-65
2021/11/06 12:17:02;;;;;;;10.60;9.07;;;8.10;99.90;;;;;;5031512;28;20192;-66
2021/11/06 12:19:46;;;;;;;14.63;9.77;;;8.20;99.90;;;;;;5032902;28;20252;-66
2021/11/06 12:22:18;;;;;;;11.77;8.70;;;8.20;99.90;;;;;;5032838;28;20181;-65
2021/11/06 12:24:49;;;;;;;9.93;8.68;;;8.20;99.90;;;;;;5032719;28;20173;-65
2021/11/06 12:27:29;;;;;;;10.52;7.65;;;8.40;99.90;;;;;;5031053;28;20257;-65
2021/11/06 12:29:55;;;;;;;14.07;10.20;;;8.50;99.90;;;;;;5032807;28;20169;-66
2021/11/06 12:32:31;;;;;;;11.37;8.50;;;8.60;99.90;;;;;;5032774;28;20180;-66
2021/11/06 12:35:00;;;;;;;17.75;8.27;;;8.70;99.90;;;;;;5032912;28;20762;-65
2021/11/06 12:37:37;;;;;;;11.52;8.80;;;8.70;99.90;;;;;;5032160;28;20265;-65
2021/11/06 12:40:19;;;;;;;11.68;8.75;;;8.80;99.90;;;;;;5032786;28;20197;-64
2021/11/06 12:43:04;;;;;;;12.02;9.32;;;8.90;99.90;;;;;;5032800;28;20166;-65
2021/11/06 12:45:29;;;;;;;10.25;7.55;;;8.80;99.90;;;;;;5032546;28;20177;-65
2021/11/06 12:48:17;;;;;;;13.13;9.20;;;8.70;99.90;;;;;;5032422;28;20197;-64
2021/11/06 12:51:04;;;;;;;13.02;9.52;;;8.70;99.90;;;;;;5032687;28;20170;-65
2021/11/06 12:53:33;;;;;;;12.50;8.40;;;8.60;99.90;;;;;;5032783;28;20269;-65